Time,TemperatureF,DewpointF,PressureIn,WindDirection,WindDirectionDegrees,WindSpeedMPH,WindSpeedGustMPH,Humidity,HourlyPrecipIn,Conditions,Clouds,dailyrainin,SoftwareType,DateUTC
2013-01-20 00:04:00,25.0,20.0,29.36,West,270,11.0,26.0,81,-99.99,,,-99.99,,2013-01-20 05:04:00,
2013-01-20 00:12:00,25.0,20.0,29.36,West,270,11.0,26.0,81,-99.99,,,-99.99,,2013-01-20 05:12:00,
2013-01-20 00:23:00,24.0,18.0,29.36,West,270,16.0,36.0,77,-99.99,,,-99.99,,2013-01-20 05:23:00,
2013-01-20 00:33:00,23.0,17.0,29.36,West,270,11.0,26.0,78,-99.99,,,-99.99,,2013-01-20 05:33:00,
2013-01-20 00:43:00,23.0,17.0,29.36,West,270,11.0,26.0,78,-99.99,,,-99.99,,2013-01-20 05:43:00,
2013-01-20 00:53:00,23.0,18.0,29.36,West,280,16.0,26.0,81,-99.99,,,-99.99,,2013-01-20 05:53:00,
2013-01-20 01:02:00,22.0,18.0,29.34,West,260,13.0,28.0,83,-99.99,,,-99.99,,2013-01-20 06:02:00,
2013-01-20 01:12:00,22.0,18.0,29.34,West,260,13.0,28.0,83,-99.99,,,-99.99,,2013-01-20 06:12:00,
2013-01-20 01:22:00,22.0,18.0,29.34,West,265,16.0,29.0,84,-99.99,,,-99.99,,2013-01-20 06:22:00,
2013-01-20 01:33:00,22.0,18.0,29.33,West,280,9.0,32.0,84,-99.99,,,-99.99,,2013-01-20 06:33:00,
2013-01-20 01:43:00,22.0,18.0,29.33,West,280,9.0,32.0,84,-99.99,,,-99.99,,2013-01-20 06:43:00,
2013-01-20 01:52:00,23.0,20.0,29.34,WNW,285,19.0,35.0,86,-99.99,,,-99.99,,2013-01-20 06:52:00,
2013-01-20 02:02:00,23.0,20.0,29.34,WNW,285,19.0,35.0,86,-99.99,,,-99.99,,2013-01-20 07:02:00,
2013-01-20 02:22:00,22.0,17.0,29.38,WNW,290,22.0,37.0,81,-99.99,,,-99.99,,2013-01-20 07:22:00,
2013-01-20 02:32:00,20.0,15.0,29.40,WNW,285,19.0,40.0,78,-99.99,,,-99.99,,2013-01-20 07:32:00,
2013-01-20 02:42:00,20.0,15.0,29.40,WNW,285,19.0,40.0,78,-99.99,,,-99.99,,2013-01-20 07:42:00,
2013-01-20 02:52:00,19.0,13.0,29.41,WNW,285,26.0,40.0,77,-99.99,,,-99.99,,2013-01-20 07:52:00,
2013-01-20 03:02:00,18.0,12.0,29.44,WNW,290,14.0,39.0,77,-99.99,,,-99.99,,2013-01-20 08:02:00,
2013-01-20 03:12:00,18.0,12.0,29.44,WNW,290,14.0,39.0,77,-99.99,,,-99.99,,2013-01-20 08:12:00,
2013-01-20 03:22:00,17.0,12.0,29.46,WNW,285,14.0,29.0,79,-99.99,,,-99.99,,2013-01-20 08:22:00,
2013-01-20 03:32:00,17.0,12.0,29.48,West,270,11.0,22.0,82,-99.99,,,-99.99,,2013-01-20 08:32:00,
2013-01-20 03:42:00,17.0,12.0,29.48,West,270,11.0,22.0,82,-99.99,,,-99.99,,2013-01-20 08:42:00,
2013-01-20 03:52:00,16.0,12.0,29.51,WNW,290,14.0,30.0,84,-99.99,,,-99.99,,2013-01-20 08:52:00,
2013-01-20 04:02:00,16.0,12.0,29.53,West,275,7.0,20.0,85,-99.99,,,-99.99,,2013-01-20 09:02:00,
2013-01-20 04:12:00,16.0,12.0,29.53,West,275,7.0,20.0,85,-99.99,,,-99.99,,2013-01-20 09:12:00,
2013-01-20 04:22:00,15.0,12.0,29.55,WNW,295,11.0,21.0,87,-99.99,,,-99.99,,2013-01-20 09:22:00,
2013-01-20 04:33:00,14.0,11.0,29.58,WNW,300,14.0,29.0,87,-99.99,,,-99.99,,2013-01-20 09:33:00,
2013-01-20 04:42:00,14.0,11.0,29.58,WNW,300,14.0,29.0,87,-99.99,,,-99.99,,2013-01-20 09:42:00,
2013-01-20 04:52:00,13.0,9.0,29.63,WNW,295,16.0,21.0,83,-99.99,,,-99.99,,2013-01-20 09:52:00,
2013-01-20 05:03:00,13.0,9.0,29.63,WNW,295,16.0,21.0,83,-99.99,,,-99.99,,2013-01-20 10:03:00,
2013-01-20 05:12:00,13.0,9.0,29.63,WNW,295,16.0,21.0,83,-99.99,,,-99.99,,2013-01-20 10:12:00,
2013-01-20 05:23:00,12.0,7.0,29.64,WNW,295,16.0,32.0,81,-99.99,,,-99.99,,2013-01-20 10:23:00,
2013-01-20 05:32:00,12.0,7.0,29.65,WNW,300,19.0,29.0,80,-99.99,,,-99.99,,2013-01-20 10:32:00,
2013-01-20 05:42:00,12.0,7.0,29.65,WNW,300,19.0,29.0,80,-99.99,,,-99.99,,2013-01-20 10:42:00,
2013-01-20 05:52:00,11.0,7.0,29.68,WNW,285,10.0,19.0,81,-99.99,,,-99.99,,2013-01-20 10:52:00,
2013-01-20 06:03:00,11.0,7.0,29.71,WNW,295,11.0,19.0,82,-99.99,,,-99.99,,2013-01-20 11:03:00,
2013-01-20 06:12:00,11.0,7.0,29.71,WNW,295,11.0,19.0,82,-99.99,,,-99.99,,2013-01-20 11:12:00,
2013-01-20 06:22:00,11.0,6.0,29.72,WNW,285,8.0,16.0,83,-99.99,,,-99.99,,2013-01-20 11:22:00,
2013-01-20 06:33:00,11.0,6.0,29.74,WNW,295,12.0,21.0,82,-99.99,,,-99.99,,2013-01-20 11:33:00,
2013-01-20 06:43:00,11.0,6.0,29.74,WNW,295,12.0,21.0,82,-99.99,,,-99.99,,2013-01-20 11:43:00,
2013-01-20 06:53:00,11.0,6.0,29.76,WNW,295,10.0,20.0,82,-99.99,,,-99.99,,2013-01-20 11:53:00,
2013-01-20 07:03:00,11.0,7.0,29.77,WNW,290,8.0,16.0,83,-99.99,,,-99.99,,2013-01-20 12:03:00,
2013-01-20 07:13:00,11.0,7.0,29.77,WNW,290,8.0,16.0,83,-99.99,,,-99.99,,2013-01-20 12:13:00,
2013-01-20 07:23:00,11.0,7.0,29.78,WNW,290,8.0,14.0,83,-99.99,,,-99.99,,2013-01-20 12:23:00,
2013-01-20 07:33:00,11.0,7.0,29.79,WNW,290,10.0,21.0,83,-99.99,,,-99.99,,2013-01-20 12:33:00,
2013-01-20 07:43:00,11.0,7.0,29.79,WNW,290,10.0,21.0,83,-99.99,,,-99.99,,2013-01-20 12:43:00,
2013-01-20 07:53:00,10.0,5.0,29.81,WNW,285,14.0,24.0,80,-99.99,,,-99.99,,2013-01-20 12:53:00,
2013-01-20 08:03:00,10.0,4.0,29.81,WNW,290,10.0,19.0,77,-99.99,,,-99.99,,2013-01-20 13:03:00,
2013-01-20 08:12:00,10.0,4.0,29.81,WNW,290,10.0,19.0,77,-99.99,,,-99.99,,2013-01-20 13:12:00,
2013-01-20 08:23:00,9.0,3.0,29.83,WNW,290,9.0,21.0,76,-99.99,,,-99.99,,2013-01-20 13:23:00,
2013-01-20 08:33:00,9.0,3.0,29.84,NW,305,10.0,21.0,77,-99.99,,,-99.99,,2013-01-20 13:33:00,
2013-01-20 08:43:00,9.0,3.0,29.84,NW,305,10.0,21.0,77,-99.99,,,-99.99,,2013-01-20 13:43:00,
2013-01-20 08:52:00,9.0,3.0,29.86,WNW,285,6.0,20.0,78,-99.99,,,-99.99,,2013-01-20 13:52:00,
2013-01-20 09:03:00,8.0,4.0,29.87,WNW,285,5.0,11.0,80,-99.99,,,-99.99,,2013-01-20 14:03:00,
2013-01-20 09:12:00,8.0,4.0,29.87,WNW,285,5.0,11.0,80,-99.99,,,-99.99,,2013-01-20 14:12:00,
2013-01-20 09:23:00,9.0,4.0,29.89,West,280,8.0,13.0,80,-99.99,,,-99.99,,2013-01-20 14:23:00,
2013-01-20 09:33:00,9.0,4.0,29.91,West,280,7.0,11.0,80,-99.99,,,-99.99,,2013-01-20 14:33:00,
2013-01-20 09:43:00,9.0,4.0,29.91,West,280,7.0,11.0,80,-99.99,,,-99.99,,2013-01-20 14:43:00,
2013-01-20 09:53:00,9.0,4.0,29.92,WNW,285,8.0,15.0,79,-99.99,,,-99.99,,2013-01-20 14:53:00,
2013-01-20 10:04:00,9.0,3.0,29.93,WNW,295,13.0,21.0,75,-99.99,,,-99.99,,2013-01-20 15:04:00,
2013-01-20 10:13:00,9.0,3.0,29.93,WNW,295,13.0,21.0,75,-99.99,,,-99.99,,2013-01-20 15:13:00,
2013-01-20 10:23:00,10.0,3.0,29.95,WNW,290,8.0,14.0,74,-99.99,,,-99.99,,2013-01-20 15:23:00,
2013-01-20 10:33:00,10.0,3.0,29.96,WNW,285,9.0,19.0,73,-99.99,,,-99.99,,2013-01-20 15:33:00,
2013-01-20 10:43:00,10.0,3.0,29.96,WNW,285,9.0,19.0,73,-99.99,,,-99.99,,2013-01-20 15:43:00,
2013-01-20 10:53:00,11.0,4.0,29.96,WNW,285,10.0,16.0,72,-99.99,,,-99.99,,2013-01-20 15:53:00,
2013-01-20 11:03:00,11.0,3.0,29.96,WNW,290,11.0,20.0,71,-99.99,,,-99.99,,2013-01-20 16:03:00,
2013-01-20 11:12:00,11.0,3.0,29.96,WNW,290,11.0,20.0,71,-99.99,,,-99.99,,2013-01-20 16:12:00,
2013-01-20 11:23:00,11.0,4.0,29.98,WNW,290,8.0,24.0,72,-99.99,,,-99.99,,2013-01-20 16:23:00,
2013-01-20 11:33:00,11.0,5.0,29.98,West,260,5.0,14.0,74,-99.99,,,-99.99,,2013-01-20 16:33:00,
2013-01-20 11:43:00,11.0,5.0,29.98,West,260,5.0,14.0,74,-99.99,,,-99.99,,2013-01-20 16:43:00,
2013-01-20 11:52:00,11.0,4.0,29.98,WNW,290,10.0,18.0,70,-99.99,,,-99.99,,2013-01-20 16:52:00,
2013-01-20 12:03:00,11.0,5.0,29.99,WNW,290,8.0,16.0,74,-99.99,,,-99.99,,2013-01-20 17:03:00,
2013-01-20 12:13:00,11.0,5.0,29.99,WNW,290,8.0,16.0,74,-99.99,,,-99.99,,2013-01-20 17:13:00,
2013-01-20 12:23:00,11.0,4.0,29.99,WNW,285,11.0,16.0,73,-99.99,,,-99.99,,2013-01-20 17:23:00,
2013-01-20 12:33:00,11.0,4.0,29.99,WNW,290,7.0,13.0,71,-99.99,,,-99.99,,2013-01-20 17:33:00,
2013-01-20 12:43:00,11.0,4.0,29.99,WNW,290,7.0,13.0,71,-99.99,,,-99.99,,2013-01-20 17:43:00,
2013-01-20 12:52:00,11.0,4.0,29.98,WNW,290,10.0,14.0,71,-99.99,,,-99.99,,2013-01-20 17:52:00,
2013-01-20 13:03:00,12.0,4.0,29.98,WNW,295,6.0,14.0,72,-99.99,,,-99.99,,2013-01-20 18:03:00,
2013-01-20 13:13:00,12.0,4.0,29.98,WNW,295,6.0,14.0,72,-99.99,,,-99.99,,2013-01-20 18:13:00,
2013-01-20 13:23:00,13.0,5.0,29.96,WNW,295,7.0,10.0,72,-99.99,,,-99.99,,2013-01-20 18:23:00,
2013-01-20 13:33:00,12.0,6.0,29.96,NW,325,6.0,11.0,78,-99.99,,,-99.99,,2013-01-20 18:33:00,
2013-01-20 13:43:00,12.0,6.0,29.96,NW,325,6.0,11.0,78,-99.99,,,-99.99,,2013-01-20 18:43:00,
2013-01-20 13:53:00,12.0,6.0,29.96,WNW,295,11.0,17.0,79,-99.99,,,-99.99,,2013-01-20 18:53:00,
2013-01-20 14:03:00,13.0,7.0,29.96,WNW,285,8.0,15.0,77,-99.99,,,-99.99,,2013-01-20 19:03:00,
2013-01-20 14:12:00,13.0,7.0,29.96,WNW,285,8.0,15.0,77,-99.99,,,-99.99,,2013-01-20 19:12:00,
2013-01-20 14:23:00,13.0,7.0,29.96,WSW,255,9.0,15.0,76,-99.99,,,-99.99,,2013-01-20 19:23:00,
2013-01-20 14:33:00,13.0,7.0,29.96,West,275,9.0,16.0,77,-99.99,,,-99.99,,2013-01-20 19:33:00,
2013-01-20 14:43:00,13.0,7.0,29.96,West,275,9.0,16.0,77,-99.99,,,-99.99,,2013-01-20 19:43:00,
2013-01-20 14:52:00,11.0,8.0,29.96,WNW,290,11.0,20.0,86,-99.99,,,-99.99,,2013-01-20 19:52:00,
2013-01-20 15:03:00,12.0,8.0,29.97,WNW,290,13.0,22.0,85,-99.99,,,-99.99,,2013-01-20 20:03:00,
2013-01-20 15:12:00,12.0,8.0,29.97,WNW,290,13.0,22.0,85,-99.99,,,-99.99,,2013-01-20 20:12:00,
2013-01-20 15:23:00,14.0,5.0,29.98,West,270,12.0,24.0,68,-99.99,,,-99.99,,2013-01-20 20:23:00,
2013-01-20 15:33:00,13.0,4.0,29.98,WNW,285,10.0,20.0,69,-99.99,,,-99.99,,2013-01-20 20:33:00,
2013-01-20 15:42:00,13.0,4.0,29.98,WNW,285,10.0,20.0,69,-99.99,,,-99.99,,2013-01-20 20:42:00,
2013-01-20 15:53:00,12.0,4.0,29.98,WNW,290,11.0,22.0,71,-99.99,,,-99.99,,2013-01-20 20:53:00,
2013-01-20 16:04:00,12.0,4.0,29.99,WNW,290,9.0,23.0,71,-99.99,,,-99.99,,2013-01-20 21:04:00,
2013-01-20 16:13:00,12.0,4.0,29.99,WNW,290,9.0,23.0,71,-99.99,,,-99.99,,2013-01-20 21:13:00,
2013-01-20 16:23:00,12.0,2.0,29.99,WSW,255,14.0,21.0,64,-99.99,,,-99.99,,2013-01-20 21:23:00,
2013-01-20 16:33:00,12.0,1.0,30.00,WNW,290,8.0,20.0,61,-99.99,,,-99.99,,2013-01-20 21:33:00,
2013-01-20 16:43:00,12.0,1.0,30.00,WNW,290,8.0,20.0,61,-99.99,,,-99.99,,2013-01-20 21:43:00,
2013-01-20 16:53:00,12.0,0.0,30.01,West,260,9.0,21.0,59,-99.99,,,-99.99,,2013-01-20 21:53:00,
2013-01-20 17:03:00,12.0,1.0,30.02,West,270,9.0,21.0,61,-99.99,,,-99.99,,2013-01-20 22:03:00,
2013-01-20 17:13:00,12.0,1.0,30.02,West,270,9.0,21.0,61,-99.99,,,-99.99,,2013-01-20 22:13:00,
2013-01-20 17:23:00,11.0,2.0,30.02,West,275,9.0,15.0,65,-99.99,,,-99.99,,2013-01-20 22:23:00,
2013-01-20 17:33:00,11.0,4.0,30.02,West,280,11.0,19.0,71,-99.99,,,-99.99,,2013-01-20 22:33:00,
2013-01-20 17:43:00,11.0,4.0,30.02,West,280,11.0,19.0,71,-99.99,,,-99.99,,2013-01-20 22:43:00,
2013-01-20 17:52:00,10.0,2.0,30.03,West,280,6.0,22.0,69,-99.99,,,-99.99,,2013-01-20 22:52:00,
2013-01-20 18:03:00,10.0,2.0,30.03,West,280,6.0,22.0,69,-99.99,,,-99.99,,2013-01-20 23:03:00,
2013-01-20 18:13:00,10.0,2.0,30.03,West,280,6.0,22.0,69,-99.99,,,-99.99,,2013-01-20 23:13:00,
2013-01-20 18:23:00,10.0,2.0,30.03,West,260,7.0,14.0,69,-99.99,,,-99.99,,2013-01-20 23:23:00,
2013-01-20 18:33:00,9.0,2.0,30.04,West,280,9.0,14.0,70,-99.99,,,-99.99,,2013-01-20 23:33:00,
2013-01-20 18:43:00,9.0,2.0,30.04,West,280,9.0,14.0,70,-99.99,,,-99.99,,2013-01-20 23:43:00,
2013-01-20 18:53:00,9.0,1.0,30.04,West,270,6.0,9.0,71,-99.99,,,-99.99,,2013-01-20 23:53:00,
2013-01-20 19:03:00,9.0,2.0,30.04,West,275,10.0,17.0,72,-99.99,,,-99.99,,2013-01-21 00:03:00,
2013-01-20 19:13:00,9.0,2.0,30.04,West,275,10.0,17.0,72,-99.99,,,-99.99,,2013-01-21 00:13:00,
2013-01-20 19:23:00,9.0,2.0,30.05,West,270,10.0,19.0,73,-99.99,,,-99.99,,2013-01-21 00:23:00,
2013-01-20 19:33:00,9.0,2.0,30.04,West,270,9.0,16.0,74,-99.99,,,-99.99,,2013-01-21 00:33:00,
2013-01-20 19:43:00,9.0,2.0,30.04,West,270,9.0,16.0,74,-99.99,,,-99.99,,2013-01-21 00:43:00,
2013-01-20 19:53:00,9.0,2.0,30.04,West,275,9.0,15.0,74,-99.99,,,-99.99,,2013-01-21 00:53:00,
2013-01-20 20:03:00,8.0,2.0,30.05,West,260,10.0,19.0,75,-99.99,,,-99.99,,2013-01-21 01:03:00,
2013-01-20 20:13:00,8.0,2.0,30.05,West,260,10.0,19.0,75,-99.99,,,-99.99,,2013-01-21 01:13:00,
2013-01-20 20:23:00,8.0,2.0,30.04,West,275,12.0,21.0,75,-99.99,,,-99.99,,2013-01-21 01:23:00,
2013-01-20 20:33:00,8.0,2.0,30.05,West,270,14.0,20.0,74,-99.99,,,-99.99,,2013-01-21 01:33:00,
2013-01-20 20:43:00,8.0,2.0,30.05,West,270,14.0,20.0,74,-99.99,,,-99.99,,2013-01-21 01:43:00,
2013-01-20 20:53:00,8.0,1.0,30.05,West,280,9.0,19.0,73,-99.99,,,-99.99,,2013-01-21 01:53:00,
2013-01-20 21:03:00,8.0,1.0,30.05,West,280,9.0,19.0,73,-99.99,,,-99.99,,2013-01-21 02:03:00,
2013-01-20 21:20:00,7.0,-2.0,30.03,WNW,285,14.0,20.0,64,-99.99,,,-99.99,,2013-01-21 02:20:00,
2013-01-20 21:23:00,8.0,-2.0,30.04,West,270,11.0,21.0,65,-99.99,,,-99.99,,2013-01-21 02:23:00,
2013-01-20 21:33:00,7.0,-2.0,30.04,West,280,11.0,23.0,65,-99.99,,,-99.99,,2013-01-21 02:33:00,
2013-01-20 21:43:00,7.0,-2.0,30.04,West,280,11.0,23.0,65,-99.99,,,-99.99,,2013-01-21 02:43:00,
2013-01-20 21:53:00,7.0,-2.0,30.03,West,270,11.0,19.0,65,-99.99,,,-99.99,,2013-01-21 02:53:00,
2013-01-20 22:03:00,7.0,-2.0,30.03,WNW,285,14.0,20.0,64,-99.99,,,-99.99,,2013-01-21 03:03:00,
2013-01-20 22:13:00,7.0,-2.0,30.03,WNW,285,14.0,20.0,64,-99.99,,,-99.99,,2013-01-21 03:13:00,
2013-01-20 22:33:00,7.0,-4.0,30.03,WNW,285,15.0,24.0,60,-99.99,,,-99.99,,2013-01-21 03:33:00,
2013-01-20 22:43:00,7.0,-4.0,30.03,WNW,285,15.0,24.0,60,-99.99,,,-99.99,,2013-01-21 03:43:00,
2013-01-20 22:53:00,7.0,-4.0,30.02,WNW,285,10.0,19.0,60,-99.99,,,-99.99,,2013-01-21 03:53:00,
2013-01-20 23:03:00,7.0,-4.0,30.02,WNW,285,10.0,19.0,60,-99.99,,,-99.99,,2013-01-21 04:03:00,
2013-01-20 23:23:00,7.0,-5.0,30.02,West,275,11.0,20.0,57,-99.99,,,-99.99,,2013-01-21 04:23:00,
2013-01-20 23:33:00,7.0,-6.0,30.02,West,275,13.0,22.0,56,-99.99,,,-99.99,,2013-01-21 04:33:00,
2013-01-20 23:43:00,7.0,-6.0,30.02,West,275,13.0,22.0,56,-99.99,,,-99.99,,2013-01-21 04:43:00,
2013-01-20 23:53:00,6.0,-6.0,30.01,WNW,290,14.0,25.0,57,-99.99,,,-99.99,,2013-01-21 04:53:00,